MET'MAP v2.0
soon released !

Expected late october,
this new version will be
more efficient, smarter,
and hosted on a brand new
server x3 powerfull...
...and still free !


Not compatible ?
Try the mobile version !

LOG IN : | Subscribe | Disclaimer | Who is Orbifly ? |
ICAO code :

TAF - ESTA Ängelholm-Helsingborg - 09 Apr 2020 09:09 UTC - Data Source NOAA   


- Airport Elevation : 68 ft
- IATA code : AGH
- No reported NOTAMs.


ESTA - Ängelholm-Helsingborg

Latest METAR recorded : 2015/08/11 07:50 ESTA 110750Z 09006KT 9000 -RA SCT005 BKN030 17/16 Q1018
Expired Forecast.

Source NOAA


MET'MAP, your aeronautical weather chart ! - Copyright ORBIFLY December 2007

Programming & Development : Alexandra Zaïnal
Co-Developer : Marc-Olivier Méhu
Technical & hardware support : Manuel Goepfert
Concept & Financing : Baudouin d'Aumeries